Time;durP1;ratioP1;P1;durP2;ratioP2;P2;SDS_P1;SDS_P2;PMS_P1;PMS_P2;Temp;Humidity;BMP_temperature;BMP_pressure;BME280_temperature;BME280_humidity;BME280_pressure;Samples;Min_cycle;Max_cycle;Signal;HPM_P1;HPM_P2
2023/05/16 00:01:35;;;;;;;12.70;8.45;;;;;;;10.69;97.44;100690.31;4937139;29;20051;-80
2023/05/16 00:04:02;;;;;;;13.18;9.77;;;;;;;10.63;97.87;100698.19;4931277;29;20123;-81
2023/05/16 00:06:28;;;;;;;10.27;8.40;;;;;;;10.62;97.99;100703.47;4941602;28;20137;-80
2023/05/16 00:08:55;;;;;;;12.63;9.25;;;;;;;10.60;98.21;100698.25;4929302;29;20361;-81
2023/05/16 00:11:22;;;;;;;11.77;9.88;;;;;;;10.56;98.28;100705.25;4936646;29;20491;-80
2023/05/16 00:13:48;;;;;;;11.38;9.75;;;;;;;10.56;98.35;100705.25;4923312;29;20047;-81
2023/05/16 00:16:15;;;;;;;12.10;9.93;;;;;;;10.57;98.59;100701.75;4933761;29;20398;-79
2023/05/16 00:18:44;;;;;;;11.65;8.98;;;;;;;10.61;98.22;100699.94;4926829;28;20034;-80
2023/05/16 00:21:11;;;;;;;12.13;9.20;;;;;;;10.62;98.01;100695.59;4940441;29;20036;-80
2023/05/16 00:23:37;;;;;;;10.30;8.63;;;;;;;10.63;98.23;100698.19;4934467;29;20051;-80
2023/05/16 00:26:04;;;;;;;8.90;7.97;;;;;;;10.67;97.97;100701.66;4930642;29;20040;-81
2023/05/16 00:28:31;;;;;;;9.65;7.57;;;;;;;10.72;98.32;100699.88;4924178;28;20061;-81
2023/05/16 00:30:58;;;;;;;8.13;7.32;;;;;;;10.75;98.37;100689.38;4939910;28;20066;-82
2023/05/16 00:33:24;;;;;;;12.32;8.07;;;;;;;10.77;98.14;100692.84;4933269;28;20082;-82
2023/05/16 00:35:52;;;;;;;9.20;8.05;;;;;;;10.72;97.83;100694.66;4940724;29;20063;-84
2023/05/16 00:38:19;;;;;;;11.48;7.60;;;;;;;10.68;98.28;100691.19;4934653;29;20068;-81
2023/05/16 00:40:46;;;;;;;13.13;8.57;;;;;;;10.68;97.40;100678.09;4922643;29;20051;-81
2023/05/16 00:43:13;;;;;;;13.35;9.43;;;;;;;10.62;97.51;100688.59;4939264;29;20039;-82
2023/05/16 00:45:39;;;;;;;10.25;8.70;;;;;;;10.63;97.76;100692.13;4935228;29;20114;-86
2023/05/16 00:48:06;;;;;;;10.25;7.70;;;;;;;10.62;97.88;100691.22;4935370;28;20476;-84
2023/05/16 00:50:33;;;;;;;9.05;7.03;;;;;;;10.57;98.56;100688.66;4947958;29;20114;-81
2023/05/16 00:53:00;;;;;;;9.88;6.95;;;;;;;10.57;98.56;100690.41;4936480;29;20044;-82
2023/05/16 00:55:27;;;;;;;11.10;7.35;;;;;;;10.56;99.08;100689.53;4959481;28;20036;-80
2023/05/16 00:57:53;;;;;;;7.43;6.53;;;;;;;10.56;98.50;100705.25;4939291;28;20043;-81
2023/05/16 01:00:20;;;;;;;5.63;5.13;;;;;;;10.55;98.39;100703.50;4925355;28;20059;-80
2023/05/16 01:02:47;;;;;;;5.90;4.80;;;;;;;10.55;98.06;100710.50;4937078;28;20517;-85
2023/05/16 01:05:13;;;;;;;5.90;4.97;;;;;;;10.56;98.25;100701.78;4943706;28;20063;-81
2023/05/16 01:07:40;;;;;;;5.72;4.75;;;;;;;10.54;97.90;100701.75;4931356;28;20047;-84
2023/05/16 01:10:07;;;;;;;6.10;3.92;;;;;;;10.51;97.90;100696.56;4943097;28;20043;-81
2023/05/16 01:12:49;;;;;;;7.35;4.45;;;;;;;10.54;97.84;100695.66;4955408;28;20064;-81
2023/05/16 01:15:28;;;;;;;7.25;3.78;;;;;;;10.53;97.45;100704.38;4933132;28;20044;-81
2023/05/16 01:18:06;;;;;;;5.30;4.13;;;;;;;10.53;96.98;100702.66;4940570;29;20055;-81
2023/05/16 01:20:50;;;;;;;6.72;4.75;;;;;;;10.56;97.36;100710.47;4940293;28;20043;-81
2023/05/16 01:23:36;;;;;;;9.32;4.50;;;;;;;10.54;96.77;100714.84;4932901;28;20036;-85
2023/05/16 01:26:23;;;;;;;8.98;4.78;;;;;;;10.53;96.63;100713.13;4937834;28;20035;-81
2023/05/16 01:28:55;;;;;;;7.50;5.07;;;;;;;10.55;96.52;100711.34;4935528;29;20066;-81
2023/05/16 01:31:25;;;;;;;6.53;5.32;;;;;;;10.55;96.25;100707.88;4938066;29;20583;-84
2023/05/16 01:33:52;;;;;;;6.90;5.13;;;;;;;10.54;96.28;100708.75;4918213;28;20051;-80
2023/05/16 01:36:30;;;;;;;5.20;4.70;;;;;;;10.54;96.24;100701.75;4932487;28;20035;-83
2023/05/16 01:39:20;;;;;;;7.75;5.35;;;;;;;10.55;96.28;100700.88;4926296;28;20130;-82
2023/05/16 01:42:13;;;;;;;10.18;5.90;;;;;;;10.55;96.89;100703.50;4952801;28;20035;-83
2023/05/16 01:44:56;;;;;;;8.80;6.20;;;;;;;10.47;96.79;100705.31;4933018;29;20074;-80
2023/05/16 01:47:26;;;;;;;9.45;6.75;;;;;;;10.47;96.70;100707.94;4922038;29;20063;-80
2023/05/16 01:50:14;;;;;;;7.53;5.30;;;;;;;10.46;97.20;100708.81;4933893;29;20082;-80
2023/05/16 01:53:01;;;;;;;7.95;5.20;;;;;;;10.49;96.76;100714.00;4938007;29;20486;-81
2023/05/16 01:55:49;;;;;;;8.27;4.72;;;;;;;10.49;96.62;100713.16;4937729;28;20047;-80
2023/05/16 01:58:20;;;;;;;8.20;5.20;;;;;;;10.35;96.63;100716.75;4942205;28;20058;-81
2023/05/16 02:00:47;;;;;;;9.95;5.07;;;;;;;10.33;97.34;100715.84;4934185;28;20043;-79
2023/05/16 02:03:13;;;;;;;5.15;4.38;;;;;;;10.35;97.73;100714.13;4941543;29;20046;-81
2023/05/16 02:05:40;;;;;;;6.68;5.47;;;;;;;10.43;97.03;100716.69;4943360;28;20046;-83
2023/05/16 02:08:08;;;;;;;4.85;3.95;;;;;;;10.45;96.88;100717.53;4928739;28;20043;-80
2023/05/16 02:10:34;;;;;;;7.78;4.72;;;;;;;10.46;96.56;100721.91;4944060;29;20054;-81
2023/05/16 02:13:01;;;;;;;6.72;4.55;;;;;;;10.48;96.72;100725.38;4937120;29;20386;-81
2023/05/16 02:15:27;;;;;;;8.38;4.55;;;;;;;10.46;96.99;100724.50;4947279;28;20045;-80
2023/05/16 02:17:54;;;;;;;8.43;3.47;;;;;;;10.42;97.43;100720.19;4930765;28;20094;-83
2023/05/16 02:20:24;;;;;;;5.05;3.55;;;;;;;10.36;96.99;100728.06;4919990;28;20138;-81
2023/05/16 02:22:52;;;;;;;3.90;3.60;;;;;;;10.36;97.45;100717.59;4933445;28;20375;-86
2023/05/16 02:25:19;;;;;;;5.28;3.42;;;;;;;10.37;97.13;100714.13;4947731;29;20049;-80
2023/05/16 02:27:45;;;;;;;6.93;3.42;;;;;;;10.35;96.76;100716.75;4934449;29;20051;-86
2023/05/16 02:30:12;;;;;;;7.32;3.95;;;;;;;10.31;96.28;100716.72;4939813;28;20121;-91
2023/05/16 02:32:40;;;;;;;8.85;4.03;;;;;;;10.29;96.23;100715.91;4930015;29;20047;-84
2023/05/16 02:35:09;;;;;;;3.85;3.25;;;;;;;10.29;96.80;100721.97;4941314;28;20470;-89
2023/05/16 02:37:35;;;;;;;3.88;3.28;;;;;;;10.26;96.46;100717.63;4933620;28;20082;-80
2023/05/16 02:40:04;;;;;;;5.20;3.50;;;;;;;10.29;96.92;100726.38;4944333;29;20122;-80
2023/05/16 02:42:34;;;;;;;3.63;2.97;;;;;;;10.22;97.44;100731.63;4918004;29;20039;-81
2023/05/16 02:45:03;;;;;;;6.97;3.65;;;;;;;10.19;98.09;100728.16;4939205;29;20058;-80
2023/05/16 02:47:31;;;;;;;5.50;2.60;;;;;;;10.17;98.67;100745.59;4938560;28;20045;-80
2023/05/16 02:49:57;;;;;;;12.95;3.63;;;;;;;10.21;98.52;100739.50;4944031;28;20077;-80
2023/05/16 02:52:24;;;;;;;7.93;3.25;;;;;;;10.16;99.66;100739.50;4932686;29;20111;-80
2023/05/16 02:54:50;;;;;;;5.22;3.35;;;;;;;10.09;100.00;100741.28;4940053;28;20042;-83
2023/05/16 02:57:17;;;;;;;4.30;2.88;;;;;;;10.01;100.00;100737.84;4933710;28;20038;-82
2023/05/16 02:59:43;;;;;;;4.43;2.72;;;;;;;9.97;100.00;100736.09;4936669;29;20463;-81
2023/05/16 03:02:12;;;;;;;4.18;2.53;;;;;;;9.99;100.00;100741.34;4926795;28;20442;-80
2023/05/16 03:04:38;;;;;;;4.25;2.78;;;;;;;10.02;100.00;100746.56;4921728;29;20122;-80
2023/05/16 03:07:05;;;;;;;3.47;2.38;;;;;;;10.02;100.00;100743.94;4928328;28;20038;-80
2023/05/16 03:09:34;;;;;;;2.78;1.95;;;;;;;10.01;100.00;100747.44;4954672;28;20043;-86
2023/05/16 03:12:00;;;;;;;4.72;1.85;;;;;;;10.01;100.00;100752.66;4940045;28;20471;-83
2023/05/16 03:14:27;;;;;;;7.40;2.25;;;;;;;10.05;100.00;100751.75;4927975;28;20109;-80
2023/05/16 03:16:53;;;;;;;3.88;1.40;;;;;;;10.02;100.00;100751.78;4933906;29;20129;-80
2023/05/16 03:19:21;;;;;;;7.68;2.40;;;;;;;10.02;100.00;100754.41;4929192;28;20043;-80
2023/05/16 03:21:47;;;;;;;3.30;1.55;;;;;;;9.98;100.00;100763.16;4939896;28;20074;-81
2023/05/16 03:24:14;;;;;;;6.65;1.73;;;;;;;9.96;100.00;100763.16;4924924;28;20091;-80
2023/05/16 03:26:40;;;;;;;6.45;2.10;;;;;;;9.92;100.00;100764.03;4912899;29;20044;-85
2023/05/16 03:29:07;;;;;;;7.88;2.38;;;;;;;9.90;100.00;100777.09;4950198;28;20082;-80
2023/05/16 03:31:34;;;;;;;5.90;2.50;;;;;;;9.90;100.00;100771.03;4939966;28;20042;-81
2023/05/16 03:34:01;;;;;;;8.63;2.45;;;;;;;9.89;100.00;100784.97;4932565;29;20039;-81
2023/05/16 03:36:36;;;;;;;3.20;2.30;;;;;;;9.81;100.00;100778.91;4927261;28;20047;-81
2023/05/16 03:39:03;;;;;;;6.97;2.05;;;;;;;9.73;100.00;100784.16;4911220;29;20582;-80
2023/05/16 03:41:29;;;;;;;4.80;2.50;;;;;;;9.64;100.00;100779.81;4938467;28;20041;-81
2023/05/16 03:43:56;;;;;;;3.38;2.20;;;;;;;9.59;100.00;100789.41;4939207;28;20070;-85
2023/05/16 03:46:22;;;;;;;10.23;2.53;;;;;;;9.60;100.00;100793.78;4917387;28;20059;-80
2023/05/16 03:48:49;;;;;;;6.32;2.17;;;;;;;9.62;100.00;100797.28;4924290;29;20491;-82
2023/05/16 03:51:15;;;;;;;4.18;1.67;;;;;;;9.65;100.00;100794.63;4925985;28;20048;-80
2023/05/16 03:53:42;;;;;;;8.38;2.45;;;;;;;9.66;100.00;100782.44;4922440;28;20551;-81
2023/05/16 03:56:08;;;;;;;7.97;2.25;;;;;;;9.64;100.00;100792.03;4929503;29;20040;-81
2023/05/16 03:58:35;;;;;;;6.82;1.67;;;;;;;9.64;100.00;100787.66;4937073;29;20196;-84
2023/05/16 04:01:01;;;;;;;5.70;2.60;;;;;;;9.73;100.00;100794.63;4917616;29;20054;-82
2023/05/16 04:03:29;;;;;;;4.85;2.15;;;;;;;9.75;100.00;100793.75;4917550;28;20094;-80
2023/05/16 04:05:56;;;;;;;6.72;2.22;;;;;;;9.81;100.00;100799.81;4933211;28;20043;-80
2023/05/16 04:08:25;;;;;;;8.55;3.00;;;;;;;9.82;100.00;100798.97;4934313;28;20146;-81
2023/05/16 04:10:53;;;;;;;7.88;3.80;;;;;;;9.85;100.00;100809.38;4917189;28;20043;-82
2023/05/16 04:13:19;;;;;;;11.68;2.45;;;;;;;9.86;100.00;100806.75;4933834;28;20154;-80
2023/05/16 04:15:46;;;;;;;29.98;5.03;;;;;;;9.84;100.00;100805.91;4921666;28;20134;-82
2023/05/16 04:18:13;;;;;;;6.35;2.40;;;;;;;9.79;100.00;100799.84;4936996;28;20546;-81
2023/05/16 04:20:39;;;;;;;5.50;1.90;;;;;;;9.77;100.00;100804.19;4942522;28;20118;-85
2023/05/16 04:23:06;;;;;;;6.30;2.38;;;;;;;9.75;100.00;100808.53;4932133;28;20047;-85
2023/05/16 04:25:33;;;;;;;6.03;2.65;;;;;;;9.73;100.00;100807.69;4934305;28;20039;-80
2023/05/16 04:27:59;;;;;;;6.25;2.42;;;;;;;9.75;100.00;100809.44;4953414;28;20055;-80
2023/05/16 04:30:26;;;;;;;9.48;2.80;;;;;;;9.81;100.00;100812.91;4930890;28;20069;-80
2023/05/16 04:32:52;;;;;;;8.88;2.05;;;;;;;9.85;99.29;100817.25;4941728;28;20051;-81
2023/05/16 04:35:21;;;;;;;9.65;2.58;;;;;;;9.81;98.33;100811.13;4921272;28;20053;-82
2023/05/16 04:37:47;;;;;;;7.72;2.35;;;;;;;9.79;98.12;100814.63;4940471;28;20043;-84
2023/05/16 04:40:14;;;;;;;11.35;2.70;;;;;;;9.74;96.89;100827.72;4959277;28;20124;-81
2023/05/16 04:42:41;;;;;;;6.28;2.10;;;;;;;9.72;97.03;100825.09;4939318;28;20106;-78
2023/05/16 04:45:10;;;;;;;10.75;2.20;;;;;;;9.73;96.35;100829.47;4947546;28;20117;-80
2023/05/16 04:47:36;;;;;;;5.80;2.22;;;;;;;9.71;95.27;100833.84;4937099;29;20051;-80
2023/05/16 04:50:04;;;;;;;18.88;2.20;;;;;;;9.71;95.70;100836.47;4917876;29;20043;-81
2023/05/16 04:52:30;;;;;;;5.50;2.10;;;;;;;9.73;95.32;100852.13;4949718;28;20055;-85
2023/05/16 04:54:59;;;;;;;6.65;1.92;;;;;;;9.73;95.18;100844.28;4941752;29;20502;-81
2023/05/16 04:57:26;;;;;;;6.68;2.28;;;;;;;9.74;95.45;100851.25;4925264;29;20051;-81
2023/05/16 04:59:53;;;;;;;14.25;2.60;;;;;;;9.76;94.14;100853.00;4947988;28;20051;-86
2023/05/16 05:02:19;;;;;;;10.70;2.35;;;;;;;9.79;93.88;100856.47;4921959;28;20110;-79
2023/05/16 05:04:46;;;;;;;5.18;1.88;;;;;;;9.79;93.26;100866.91;4942797;28;20098;-84
2023/05/16 05:07:13;;;;;;;8.77;2.72;;;;;;;9.78;92.65;100866.06;4925528;28;20483;-81
2023/05/16 05:09:41;;;;;;;11.13;2.65;;;;;;;9.80;92.62;100874.75;4936457;28;20147;-82
2023/05/16 05:12:08;;;;;;;11.80;3.25;;;;;;;9.85;92.37;100874.75;4942230;28;20043;-81
2023/05/16 05:14:35;;;;;;;10.55;2.45;;;;;;;9.86;90.90;100879.13;4938154;29;20043;-81
2023/05/16 05:17:01;;;;;;;8.40;2.20;;;;;;;9.83;89.55;100889.56;4945514;29;20055;-79
2023/05/16 05:19:28;;;;;;;10.73;2.47;;;;;;;9.80;90.12;100894.81;4926001;28;20444;-80
2023/05/16 05:21:55;;;;;;;9.02;1.85;;;;;;;9.83;89.95;100893.06;4936904;29;20059;-83
2023/05/16 05:24:21;;;;;;;9.77;1.83;;;;;;;9.84;88.81;100894.81;4960397;28;20046;-80
2023/05/16 05:26:48;;;;;;;8.30;2.30;;;;;;;9.92;89.07;100898.28;4940176;29;20557;-80
2023/05/16 05:29:14;;;;;;;7.75;2.42;;;;;;;9.91;87.74;100896.53;4924109;29;20103;-82
2023/05/16 05:31:41;;;;;;;6.22;2.42;;;;;;;9.95;86.75;100900.00;4900239;29;20048;-79
2023/05/16 05:34:08;;;;;;;9.00;2.20;;;;;;;9.93;86.44;100905.25;4906252;29;20042;-80
2023/05/16 05:36:34;;;;;;;7.57;2.00;;;;;;;9.96;86.12;100900.88;4898708;29;20092;-80
2023/05/16 05:39:01;;;;;;;6.55;2.08;;;;;;;9.98;85.49;100910.47;4904985;29;20044;-80
2023/05/16 05:41:27;;;;;;;13.68;4.03;;;;;;;10.00;84.64;100913.06;4921981;29;20066;-80
2023/05/16 05:43:53;;;;;;;5.30;1.92;;;;;;;9.99;84.27;100919.19;4934438;29;20058;-88
2023/05/16 05:46:20;;;;;;;8.05;1.65;;;;;;;9.97;84.11;100916.56;4919473;29;20100;-87
2023/05/16 05:48:47;;;;;;;7.90;2.78;;;;;;;9.97;83.86;100931.38;4919380;29;20043;-96
2023/05/16 05:51:16;;;;;;;10.00;2.03;;;;;;;10.01;83.40;100938.34;4930191;29;20104;-85
2023/05/16 05:53:43;;;;;;;5.68;2.15;;;;;;;10.07;83.00;100938.34;4921183;29;20471;-83
2023/05/16 05:56:10;;;;;;;14.73;1.98;;;;;;;10.16;82.49;100940.06;4910609;29;20506;-81
2023/05/16 05:58:36;;;;;;;12.77;2.67;;;;;;;10.24;82.62;100948.75;4934805;29;20036;-80
2023/05/16 06:01:04;;;;;;;8.80;2.53;;;;;;;10.20;82.17;100945.28;4915298;29;20156;-80
2023/05/16 06:03:31;;;;;;;8.98;1.75;;;;;;;10.17;81.84;100957.50;4895380;29;20106;-80
2023/05/16 06:05:59;;;;;;;10.75;1.67;;;;;;;10.16;81.42;100959.25;4910998;29;20055;-82
2023/05/16 06:08:26;;;;;;;8.32;2.80;;;;;;;10.14;81.36;100960.13;4897569;29;20056;-87
2023/05/16 06:10:53;;;;;;;6.15;1.42;;;;;;;10.16;81.43;100966.25;4912388;29;20060;-82
2023/05/16 06:13:19;;;;;;;3.58;1.55;;;;;;;10.16;81.10;100980.19;4907079;29;20055;-82
2023/05/16 06:15:53;;;;;;;8.27;2.22;;;;;;;10.24;80.87;100982.78;4903224;29;20177;-80
2023/05/16 06:18:23;;;;;;;13.68;2.75;;;;;;;10.27;80.15;100982.75;4912272;29;20067;-82
2023/05/16 06:20:50;;;;;;;8.63;2.60;;;;;;;10.27;79.82;100988.88;4915714;29;20043;-82
2023/05/16 06:23:17;;;;;;;6.10;1.77;;;;;;;10.22;80.15;100988.03;4918699;29;20368;-82
2023/05/16 06:25:44;;;;;;;7.80;1.50;;;;;;;10.16;80.04;100989.78;4898944;29;20475;-82
2023/05/16 06:28:10;;;;;;;16.05;2.35;;;;;;;10.10;79.21;100985.41;4914779;29;20506;-81
2023/05/16 06:30:36;;;;;;;8.07;1.95;;;;;;;10.12;79.63;100990.63;4927500;29;20057;-80
2023/05/16 06:33:03;;;;;;;7.55;1.38;;;;;;;10.32;79.52;100988.84;4919735;29;20423;-86
2023/05/16 06:35:30;;;;;;;8.68;1.83;;;;;;;10.50;77.83;100992.34;4933030;29;20036;-82
2023/05/16 06:37:56;;;;;;;11.30;2.30;;;;;;;10.55;77.15;100982.72;4923434;29;20044;-82
2023/05/16 06:40:23;;;;;;;13.10;1.73;;;;;;;10.64;76.46;100993.16;4929064;29;20050;-84
2023/05/16 06:42:49;;;;;;;9.45;1.83;;;;;;;10.76;75.60;100976.53;4928829;29;20491;-81
2023/05/16 06:45:17;;;;;;;7.07;1.38;;;;;;;10.78;75.46;100992.22;4916200;29;20087;-81
2023/05/16 06:47:44;;;;;;;6.97;1.50;;;;;;;10.79;75.79;101000.06;4914607;29;20040;-80
2023/05/16 06:50:10;;;;;;;7.05;1.67;;;;;;;10.80;75.59;100987.88;4926570;29;20051;-80
2023/05/16 06:52:37;;;;;;;4.50;1.45;;;;;;;10.85;75.57;100989.56;4927386;29;20048;-83
2023/05/16 06:55:06;;;;;;;12.27;2.10;;;;;;;10.90;74.65;101000.91;4930484;29;20051;-84
2023/05/16 06:57:33;;;;;;;9.80;2.00;;;;;;;10.89;74.43;101003.53;4928635;29;20055;-85
2023/05/16 07:00:00;;;;;;;8.15;1.73;;;;;;;10.92;73.64;101000.88;4910854;29;20051;-80
2023/05/16 07:02:27;;;;;;;4.47;1.40;;;;;;;10.95;71.56;101007.88;4910008;29;20056;-80
2023/05/16 07:04:58;;;;;;;16.60;2.70;;;;;;;10.98;71.30;101013.97;4925803;29;20066;-80
2023/05/16 07:07:24;;;;;;;8.52;1.80;;;;;;;11.04;71.69;101006.09;4923296;29;20083;-80
2023/05/16 07:09:51;;;;;;;10.23;1.52;;;;;;;10.95;70.99;101015.72;4928172;29;20071;-79
2023/05/16 07:12:18;;;;;;;3.50;1.40;;;;;;;10.97;70.84;101008.75;4925803;29;20127;-83
2023/05/16 07:14:45;;;;;;;6.05;1.60;;;;;;;10.94;70.60;101009.63;4932969;29;20380;-79
2023/05/16 07:17:12;;;;;;;4.20;1.10;;;;;;;11.13;68.33;101010.38;4926326;29;20050;-81
2023/05/16 07:19:38;;;;;;;11.77;1.90;;;;;;;11.91;68.61;101008.09;4922674;29;20043;-84
2023/05/16 07:22:11;;;;;;;7.47;2.03;;;;;;;12.46;64.31;101005.84;4928123;29;20063;-79
2023/05/16 07:24:37;;;;;;;11.18;2.03;;;;;;;12.24;64.11;101011.31;4918893;29;20067;-80
2023/05/16 07:27:05;;;;;;;7.15;2.00;;;;;;;12.33;63.69;101016.50;4908858;29;20078;-80
2023/05/16 07:29:31;;;;;;;7.22;1.48;;;;;;;12.45;62.31;101012.84;4925289;29;20056;-83
2023/05/16 07:31:59;;;;;;;7.53;2.08;;;;;;;12.80;61.22;101006.31;4915759;29;20414;-82
2023/05/16 07:34:25;;;;;;;4.05;1.48;;;;;;;13.68;59.80;101006.84;4916990;29;20048;-80
2023/05/16 07:36:52;;;;;;;5.38;1.20;;;;;;;14.09;57.44;101002.63;4941193;29;20047;-80
2023/05/16 07:39:18;;;;;;;6.55;1.25;;;;;;;13.90;57.95;101008.22;4926915;29;20119;-81
2023/05/16 07:41:45;;;;;;;7.78;1.48;;;;;;;13.33;58.66;101010.84;4920096;29;20055;-83
2023/05/16 07:44:12;;;;;;;4.03;1.05;;;;;;;13.04;57.88;101020.88;4926769;29;20099;-81
2023/05/16 07:46:38;;;;;;;3.97;0.68;;;;;;;13.43;56.08;101022.13;4912525;29;20044;-83
2023/05/16 07:49:05;;;;;;;5.28;1.33;;;;;;;14.22;52.84;101012.06;4929039;29;20047;-81
2023/05/16 07:51:32;;;;;;;6.68;0.85;;;;;;;15.25;50.16;101016.13;4929538;29;20046;-81
2023/05/16 07:53:58;;;;;;;3.13;1.05;;;;;;;16.27;47.39;101020.72;4924284;29;20106;-82
2023/05/16 07:56:25;;;;;;;3.55;0.90;;;;;;;17.25;45.26;101014.44;4929942;29;20051;-81
2023/05/16 07:58:54;;;;;;;4.03;1.20;;;;;;;17.80;42.86;101005.63;4928023;29;20487;-83
2023/05/16 08:01:20;;;;;;;6.97;1.48;;;;;;;16.87;42.81;101022.56;4925525;29;20052;-82
2023/05/16 08:03:47;;;;;;;4.47;1.08;;;;;;;15.88;45.34;101035.78;4924160;29;20055;-81
2023/05/16 08:06:16;;;;;;;7.93;1.63;;;;;;;16.00;45.83;101028.47;4912671;29;20100;-83
2023/05/16 08:08:45;;;;;;;3.28;1.55;;;;;;;16.72;43.91;101032.72;4922844;29;20471;-82
2023/05/16 08:11:11;;;;;;;7.68;1.00;;;;;;;17.45;41.65;101027.00;4929061;29;20498;-84
2023/05/16 08:13:38;;;;;;;6.15;1.25;;;;;;;18.31;40.46;101017.16;4924250;29;20805;-83
2023/05/16 08:16:06;;;;;;;3.65;0.63;;;;;;;18.04;40.60;101024.28;4922720;29;20046;-83
2023/05/16 08:18:32;;;;;;;6.20;2.13;;;;;;;17.77;40.39;101019.81;4928208;29;20048;-84
2023/05/16 08:20:59;;;;;;;6.45;1.00;;;;;;;18.43;39.16;101024.66;4930497;29;20107;-82
2023/05/16 08:23:26;;;;;;;5.80;1.15;;;;;;;18.31;38.83;101020.66;4932079;29;20063;-80
2023/05/16 08:25:54;;;;;;;4.00;0.82;;;;;;;17.49;40.09;101020.69;4927844;29;20048;-86
2023/05/16 08:28:20;;;;;;;5.80;1.50;;;;;;;17.57;40.44;101016.97;4914478;29;20527;-84
2023/05/16 08:30:47;;;;;;;5.25;1.15;;;;;;;17.96;39.62;101012.13;4919088;29;20108;-82
2023/05/16 08:33:13;;;;;;;3.58;0.95;;;;;;;17.39;39.76;101018.41;4926282;29;20056;-88
2023/05/16 08:35:44;;;;;;;4.57;1.58;;;;;;;16.68;41.32;101039.88;4924446;29;20063;-80
2023/05/16 08:38:10;;;;;;;5.57;0.90;;;;;;;16.09;43.05;101044.09;4898172;29;20044;-85
2023/05/16 08:40:37;;;;;;;5.60;1.25;;;;;;;17.06;41.05;101037.06;4929294;29;20051;-81
2023/05/16 08:43:06;;;;;;;2.83;1.00;;;;;;;18.41;39.02;101034.47;4926171;29;20052;-83
2023/05/16 08:45:33;;;;;;;3.78;0.80;;;;;;;19.55;37.30;101031.09;4911529;29;20138;-80
2023/05/16 08:48:02;;;;;;;8.88;1.23;;;;;;;20.14;36.00;101027.75;4909038;29;20142;-81
2023/05/16 08:50:32;;;;;;;4.57;1.00;;;;;;;20.61;34.43;101026.59;4911182;29;20086;-82
2023/05/16 08:53:07;;;;;;;6.75;1.02;;;;;;;20.77;34.21;101028.59;4919931;29;20051;-82
2023/05/16 08:55:35;;;;;;;7.43;1.45;;;;;;;20.09;35.16;101034.19;4926661;29;20050;-83
2023/05/16 08:58:03;;;;;;;6.18;1.25;;;;;;;18.25;37.77;101031.50;4892202;29;20058;-81
2023/05/16 09:00:31;;;;;;;3.30;0.98;;;;;;;17.01;40.09;101032.78;4919476;29;20470;-84
2023/05/16 09:02:59;;;;;;;5.45;1.48;;;;;;;16.76;40.37;101034.38;4903424;29;20063;-80
2023/05/16 09:05:27;;;;;;;5.70;1.25;;;;;;;18.01;38.16;101020.78;4935358;29;20069;-82
2023/05/16 09:07:53;;;;;;;3.22;1.17;;;;;;;19.12;35.23;101017.72;4904255;29;20054;-86
2023/05/16 09:10:21;;;;;;;2.67;1.02;;;;;;;19.97;34.59;101024.94;4917293;29;20035;-81
2023/05/16 09:12:47;;;;;;;4.90;1.00;;;;;;;20.58;33.33;101021.41;4923433;29;20043;-81
2023/05/16 09:15:14;;;;;;;2.72;1.00;;;;;;;21.41;32.49;101026.50;4903406;29;20398;-82
2023/05/16 09:17:46;;;;;;;4.60;1.70;;;;;;;22.49;31.16;101018.44;4942274;29;20040;-81
2023/05/16 09:20:19;;;;;;;2.72;0.85;;;;;;;20.94;31.73;101028.66;4910674;29;20051;-81
2023/05/16 09:23:02;;;;;;;2.13;1.23;;;;;;;20.03;32.74;101024.69;4908775;29;20043;-81
2023/05/16 09:25:31;;;;;;;3.35;0.73;;;;;;;20.69;31.92;101022.72;4918233;29;20096;-86
2023/05/16 09:28:01;;;;;;;2.13;0.73;;;;;;;21.91;30.04;101017.81;4929264;28;20070;-81
2023/05/16 09:30:36;;;;;;;4.43;0.80;;;;;;;21.58;30.29;101025.72;4927820;28;20043;-81
2023/05/16 09:33:03;;;;;;;2.53;0.70;;;;;;;20.78;30.76;101017.88;4938816;29;20083;-86
2023/05/16 09:35:31;;;;;;;4.70;1.17;;;;;;;20.15;31.59;101032.16;4948247;29;20130;-81
2023/05/16 09:37:58;;;;;;;3.13;0.50;;;;;;;19.43;32.00;101025.34;4950600;28;20038;-80
2023/05/16 09:40:25;;;;;;;6.03;0.80;;;;;;;19.21;32.32;101030.63;4958984;28;20058;-80
2023/05/16 09:43:07;;;;;;;2.58;0.77;;;;;;;18.23;34.49;101030.66;4935285;29;20697;-80
2023/05/16 09:45:35;;;;;;;4.88;1.15;;;;;;;17.44;35.94;101041.19;4936959;29;20074;-81
2023/05/16 09:48:11;;;;;;;8.55;1.00;;;;;;;18.44;35.07;101041.44;4938140;29;20049;-83
2023/05/16 09:50:38;;;;;;;2.78;0.90;;;;;;;20.24;31.41;101030.88;4918967;29;20075;-83
2023/05/16 09:53:06;;;;;;;3.35;0.80;;;;;;;21.96;29.77;101025.56;4935562;29;20039;-84
2023/05/16 09:55:33;;;;;;;4.05;0.73;;;;;;;23.08;28.02;101017.91;4938706;28;20034;-84
2023/05/16 09:58:01;;;;;;;5.53;1.02;;;;;;;24.23;27.21;101013.06;4936379;29;20097;-84
2023/05/16 10:00:32;;;;;;;1.95;0.52;;;;;;;25.07;25.03;101008.78;4929704;28;20102;-82
2023/05/16 10:03:01;;;;;;;5.25;1.25;;;;;;;24.25;26.59;101008.50;4922244;29;20062;-82
2023/05/16 10:05:28;;;;;;;2.38;0.57;;;;;;;23.26;27.76;101014.25;4926300;28;20560;-81
2023/05/16 10:07:57;;;;;;;2.78;0.70;;;;;;;21.85;27.44;101011.94;4938802;28;20054;-82
2023/05/16 10:10:28;;;;;;;1.10;0.50;;;;;;;23.04;27.62;101009.22;4940348;28;20067;-82
2023/05/16 10:13:00;;;;;;;0.98;0.73;;;;;;;24.07;25.20;101005.13;4938445;28;20498;-83
2023/05/16 10:15:29;;;;;;;2.22;0.75;;;;;;;23.94;25.69;100999.66;4919253;28;20386;-83
2023/05/16 10:17:58;;;;;;;3.33;0.73;;;;;;;23.97;25.57;101000.44;4935597;29;20082;-80
2023/05/16 10:20:26;;;;;;;1.90;0.75;;;;;;;24.09;25.19;100995.19;4938485;28;20061;-84
2023/05/16 10:22:55;;;;;;;1.52;0.60;;;;;;;23.81;26.63;101000.47;4932422;29;20051;-83
2023/05/16 10:25:32;;;;;;;4.70;0.98;;;;;;;23.27;26.26;100999.06;4937295;28;20050;-83
2023/05/16 10:28:00;;;;;;;3.15;0.60;;;;;;;23.84;26.58;101009.13;4927329;29;20059;-83
2023/05/16 10:30:27;;;;;;;4.53;0.98;;;;;;;24.35;25.70;101013.28;4916615;29;20100;-86
2023/05/16 10:32:55;;;;;;;7.22;1.38;;;;;;;24.64;25.86;101002.63;4916714;29;20068;-82
2023/05/16 10:35:21;;;;;;;3.55;0.68;;;;;;;25.76;24.70;101008.75;4916579;29;20059;-82
2023/05/16 10:37:50;;;;;;;3.03;0.50;;;;;;;26.48;22.95;100991.34;4925572;29;20039;-83
2023/05/16 10:40:18;;;;;;;3.22;0.50;;;;;;;27.03;22.37;100991.06;4908584;29;20047;-88
2023/05/16 10:42:55;;;;;;;2.63;0.88;;;;;;;26.66;21.61;100999.06;4918698;29;20102;-83
2023/05/16 10:45:23;;;;;;;2.35;0.60;;;;;;;25.62;23.08;101000.78;4918515;29;20059;-82
2023/05/16 10:48:03;;;;;;;2.00;0.40;;;;;;;24.18;23.94;101001.78;4917729;29;20051;-82
2023/05/16 10:50:44;;;;;;;2.60;0.75;;;;;;;24.21;24.77;101008.75;4912421;29;20487;-82
2023/05/16 10:53:22;;;;;;;3.75;0.90;;;;;;;25.51;22.90;100992.59;4907598;29;20087;-84
2023/05/16 10:56:02;;;;;;;1.55;0.50;;;;;;;25.21;22.76;100991.81;4914444;29;20047;-82
2023/05/16 10:58:37;;;;;;;3.60;0.88;;;;;;;26.08;22.09;100986.09;4931467;29;20073;-83
2023/05/16 11:01:29;;;;;;;3.60;1.05;;;;;;;26.85;21.04;100998.63;4931111;29;20499;-80
2023/05/16 11:03:58;;;;;;;2.72;0.75;;;;;;;26.93;21.60;100988.16;4911094;29;20546;-81
2023/05/16 11:06:35;;;;;;;3.15;0.85;;;;;;;25.43;22.96;100998.47;4929948;29;20044;-85
2023/05/16 11:09:08;;;;;;;2.00;0.50;;;;;;;23.95;23.89;101003.19;4912150;29;20414;-83
2023/05/16 11:12:01;;;;;;;2.25;0.47;;;;;;;22.22;25.75;100999.38;4913790;29;20104;-84
2023/05/16 11:14:32;;;;;;;1.38;0.70;;;;;;;20.84;27.42;101005.22;4913732;29;20067;-82
2023/05/16 11:17:27;;;;;;;4.72;0.60;;;;;;;20.85;27.94;101007.81;4900243;29;20443;-83
2023/05/16 11:19:58;;;;;;;1.38;0.45;;;;;;;20.63;28.13;101002.59;4909090;29;20075;-83
2023/05/16 11:22:28;;;;;;;6.93;1.00;;;;;;;19.94;29.19;101007.34;4906698;29;20071;-81
2023/05/16 11:25:07;;;;;;;3.25;0.52;;;;;;;19.37;29.36;101020.28;4910062;29;20054;-82
2023/05/16 11:27:46;;;;;;;2.13;0.60;;;;;;;19.53;30.05;101017.88;4920380;29;20845;-82
2023/05/16 11:30:16;;;;;;;5.35;1.00;;;;;;;21.50;28.55;101007.41;4915927;29;20391;-83
2023/05/16 11:32:49;;;;;;;3.40;0.63;;;;;;;23.16;26.87;101005.03;4889767;29;20074;-82